sensor_id;sensor_type;location;lat;lon;timestamp;P1;durP1;ratioP1;P2;durP2;ratioP2
25535;SDS011;13431;51.352;6.412;2023-02-28T00:01:28;5.10;;;4.40;;
25535;SDS011;13431;51.352;6.412;2023-02-28T00:03:56;7.57;;;5.60;;
25535;SDS011;13431;51.352;6.412;2023-02-28T00:06:24;6.82;;;5.80;;
25535;SDS011;13431;51.352;6.412;2023-02-28T00:08:52;9.27;;;5.57;;
25535;SDS011;13431;51.352;6.412;2023-02-28T00:11:19;9.63;;;5.13;;
25535;SDS011;13431;51.352;6.412;2023-02-28T00:13:47;8.57;;;5.32;;
25535;SDS011;13431;51.352;6.412;2023-02-28T00:16:19;8.93;;;5.57;;
25535;SDS011;13431;51.352;6.412;2023-02-28T00:18:48;6.63;;;5.25;;
25535;SDS011;13431;51.352;6.412;2023-02-28T00:21:17;7.32;;;4.93;;
25535;SDS011;13431;51.352;6.412;2023-02-28T00:23:45;7.60;;;5.82;;
25535;SDS011;13431;51.352;6.412;2023-02-28T00:26:12;8.43;;;5.53;;
25535;SDS011;13431;51.352;6.412;2023-02-28T00:28:43;6.82;;;5.75;;
25535;SDS011;13431;51.352;6.412;2023-02-28T00:31:11;7.57;;;5.57;;
25535;SDS011;13431;51.352;6.412;2023-02-28T00:33:38;10.48;;;6.05;;
25535;SDS011;13431;51.352;6.412;2023-02-28T00:36:06;8.13;;;5.82;;
25535;SDS011;13431;51.352;6.412;2023-02-28T00:38:36;12.63;;;5.75;;
25535;SDS011;13431;51.352;6.412;2023-02-28T00:41:04;9.63;;;5.97;;
25535;SDS011;13431;51.352;6.412;2023-02-28T00:43:33;10.00;;;7.00;;
25535;SDS011;13431;51.352;6.412;2023-02-28T00:46:01;10.48;;;6.65;;
25535;SDS011;13431;51.352;6.412;2023-02-28T00:48:29;12.07;;;6.35;;
25535;SDS011;13431;51.352;6.412;2023-02-28T00:50:57;11.32;;;6.35;;
25535;SDS011;13431;51.352;6.412;2023-02-28T00:53:24;8.82;;;5.75;;
25535;SDS011;13431;51.352;6.412;2023-02-28T00:55:52;8.60;;;5.80;;
25535;SDS011;13431;51.352;6.412;2023-02-28T00:58:19;7.88;;;6.38;;
25535;SDS011;13431;51.352;6.412;2023-02-28T01:00:47;8.13;;;5.95;;
25535;SDS011;13431;51.352;6.412;2023-02-28T01:03:16;7.63;;;5.20;;
25535;SDS011;13431;51.352;6.412;2023-02-28T01:05:44;9.75;;;5.28;;
25535;SDS011;13431;51.352;6.412;2023-02-28T01:08:13;8.68;;;5.72;;
25535;SDS011;13431;51.352;6.412;2023-02-28T01:10:41;5.30;;;4.80;;
25535;SDS011;13431;51.352;6.412;2023-02-28T01:13:09;8.20;;;5.20;;
25535;SDS011;13431;51.352;6.412;2023-02-28T01:15:37;6.50;;;5.07;;
25535;SDS011;13431;51.352;6.412;2023-02-28T01:18:07;9.15;;;5.47;;
25535;SDS011;13431;51.352;6.412;2023-02-28T01:20:36;6.88;;;5.60;;
25535;SDS011;13431;51.352;6.412;2023-02-28T01:23:04;6.07;;;5.30;;
25535;SDS011;13431;51.352;6.412;2023-02-28T01:25:36;6.47;;;5.00;;
25535;SDS011;13431;51.352;6.412;2023-02-28T01:28:04;6.15;;;5.00;;
25535;SDS011;13431;51.352;6.412;2023-02-28T01:30:33;9.05;;;5.65;;
25535;SDS011;13431;51.352;6.412;2023-02-28T01:33:01;6.78;;;5.00;;
25535;SDS011;13431;51.352;6.412;2023-02-28T01:35:28;7.07;;;4.72;;
25535;SDS011;13431;51.352;6.412;2023-02-28T01:37:58;7.47;;;5.38;;
25535;SDS011;13431;51.352;6.412;2023-02-28T01:40:41;9.15;;;5.30;;
25535;SDS011;13431;51.352;6.412;2023-02-28T01:43:20;6.22;;;4.53;;
25535;SDS011;13431;51.352;6.412;2023-02-28T01:45:47;6.40;;;4.72;;
25535;SDS011;13431;51.352;6.412;2023-02-28T01:48:14;7.28;;;4.22;;
25535;SDS011;13431;51.352;6.412;2023-02-28T01:50:43;7.05;;;5.32;;
25535;SDS011;13431;51.352;6.412;2023-02-28T01:53:14;6.13;;;4.68;;
25535;SDS011;13431;51.352;6.412;2023-02-28T01:55:46;10.60;;;5.45;;
25535;SDS011;13431;51.352;6.412;2023-02-28T01:58:16;6.47;;;4.47;;
25535;SDS011;13431;51.352;6.412;2023-02-28T02:00:43;6.13;;;4.82;;
25535;SDS011;13431;51.352;6.412;2023-02-28T02:03:12;6.88;;;4.85;;
25535;SDS011;13431;51.352;6.412;2023-02-28T02:05:43;6.85;;;5.10;;
25535;SDS011;13431;51.352;6.412;2023-02-28T02:08:18;4.97;;;4.45;;
25535;SDS011;13431;51.352;6.412;2023-02-28T02:10:48;6.97;;;4.97;;
25535;SDS011;13431;51.352;6.412;2023-02-28T02:13:30;5.03;;;4.53;;
25535;SDS011;13431;51.352;6.412;2023-02-28T02:16:18;7.40;;;5.28;;
25535;SDS011;13431;51.352;6.412;2023-02-28T02:25:29;7.03;;;4.95;;
25535;SDS011;13431;51.352;6.412;2023-02-28T02:28:20;8.60;;;5.13;;
25535;SDS011;13431;51.352;6.412;2023-02-28T02:31:03;7.88;;;5.55;;
25535;SDS011;13431;51.352;6.412;2023-02-28T02:37:27;7.30;;;5.07;;
25535;SDS011;13431;51.352;6.412;2023-02-28T02:42:11;7.13;;;4.80;;
25535;SDS011;13431;51.352;6.412;2023-02-28T02:44:47;5.68;;;4.60;;
25535;SDS011;13431;51.352;6.412;2023-02-28T02:47:23;7.72;;;5.45;;
25535;SDS011;13431;51.352;6.412;2023-02-28T02:49:55;7.40;;;5.22;;
25535;SDS011;13431;51.352;6.412;2023-02-28T02:52:28;6.10;;;5.30;;
25535;SDS011;13431;51.352;6.412;2023-02-28T02:55:03;6.53;;;4.85;;
25535;SDS011;13431;51.352;6.412;2023-02-28T03:00:19;8.18;;;4.60;;
25535;SDS011;13431;51.352;6.412;2023-02-28T03:02:52;4.90;;;3.87;;
25535;SDS011;13431;51.352;6.412;2023-02-28T03:05:29;6.82;;;4.72;;
25535;SDS011;13431;51.352;6.412;2023-02-28T03:08:03;7.75;;;4.55;;
25535;SDS011;13431;51.352;6.412;2023-02-28T03:10:33;7.55;;;5.38;;
25535;SDS011;13431;51.352;6.412;2023-02-28T03:19:20;6.05;;;5.15;;
25535;SDS011;13431;51.352;6.412;2023-02-28T03:33:28;6.07;;;4.78;;
25535;SDS011;13431;51.352;6.412;2023-02-28T03:36:02;7.10;;;4.80;;
25535;SDS011;13431;51.352;6.412;2023-02-28T03:38:35;7.88;;;5.30;;
25535;SDS011;13431;51.352;6.412;2023-02-28T03:41:15;7.00;;;5.15;;
25535;SDS011;13431;51.352;6.412;2023-02-28T03:43:58;6.05;;;4.43;;
25535;SDS011;13431;51.352;6.412;2023-02-28T03:46:31;7.35;;;4.85;;
25535;SDS011;13431;51.352;6.412;2023-02-28T03:52:10;6.32;;;4.57;;
25535;SDS011;13431;51.352;6.412;2023-02-28T03:54:41;6.13;;;4.47;;
25535;SDS011;13431;51.352;6.412;2023-02-28T03:57:26;6.68;;;4.63;;
25535;SDS011;13431;51.352;6.412;2023-02-28T04:00:21;5.10;;;4.55;;
25535;SDS011;13431;51.352;6.412;2023-02-28T04:02:55;6.35;;;5.22;;
25535;SDS011;13431;51.352;6.412;2023-02-28T04:05:23;11.52;;;4.32;;
25535;SDS011;13431;51.352;6.412;2023-02-28T04:07:51;7.00;;;4.30;;
25535;SDS011;13431;51.352;6.412;2023-02-28T04:10:19;5.57;;;4.65;;
25535;SDS011;13431;51.352;6.412;2023-02-28T04:12:46;6.75;;;4.25;;
25535;SDS011;13431;51.352;6.412;2023-02-28T04:15:14;5.43;;;4.03;;
25535;SDS011;13431;51.352;6.412;2023-02-28T04:17:41;6.15;;;4.47;;
25535;SDS011;13431;51.352;6.412;2023-02-28T04:20:09;6.03;;;4.85;;
25535;SDS011;13431;51.352;6.412;2023-02-28T04:22:37;5.65;;;4.18;;
25535;SDS011;13431;51.352;6.412;2023-02-28T04:25:04;6.00;;;4.97;;
25535;SDS011;13431;51.352;6.412;2023-02-28T04:27:32;6.00;;;4.63;;
25535;SDS011;13431;51.352;6.412;2023-02-28T04:30:00;7.07;;;4.90;;
25535;SDS011;13431;51.352;6.412;2023-02-28T04:32:27;5.55;;;4.32;;
25535;SDS011;13431;51.352;6.412;2023-02-28T04:34:54;4.78;;;4.18;;
25535;SDS011;13431;51.352;6.412;2023-02-28T04:37:22;5.00;;;4.50;;
25535;SDS011;13431;51.352;6.412;2023-02-28T04:39:54;6.00;;;4.15;;
25535;SDS011;13431;51.352;6.412;2023-02-28T04:42:21;6.47;;;4.40;;
25535;SDS011;13431;51.352;6.412;2023-02-28T04:44:48;6.93;;;4.32;;
25535;SDS011;13431;51.352;6.412;2023-02-28T04:47:16;5.10;;;4.15;;
25535;SDS011;13431;51.352;6.412;2023-02-28T04:49:43;5.35;;;4.03;;
25535;SDS011;13431;51.352;6.412;2023-02-28T04:52:10;6.93;;;4.10;;
25535;SDS011;13431;51.352;6.412;2023-02-28T04:54:39;7.93;;;4.35;;
25535;SDS011;13431;51.352;6.412;2023-02-28T04:57:07;6.82;;;4.68;;
25535;SDS011;13431;51.352;6.412;2023-02-28T04:59:34;6.90;;;4.13;;
25535;SDS011;13431;51.352;6.412;2023-02-28T05:02:01;7.00;;;4.90;;
25535;SDS011;13431;51.352;6.412;2023-02-28T05:04:33;4.80;;;4.03;;
25535;SDS011;13431;51.352;6.412;2023-02-28T05:07:01;7.97;;;4.13;;
25535;SDS011;13431;51.352;6.412;2023-02-28T05:09:29;7.15;;;4.35;;
25535;SDS011;13431;51.352;6.412;2023-02-28T05:11:57;7.47;;;4.00;;
25535;SDS011;13431;51.352;6.412;2023-02-28T05:14:24;7.53;;;3.90;;
25535;SDS011;13431;51.352;6.412;2023-02-28T05:16:52;7.57;;;3.92;;
25535;SDS011;13431;51.352;6.412;2023-02-28T05:19:19;6.22;;;4.00;;
25535;SDS011;13431;51.352;6.412;2023-02-28T05:21:49;7.45;;;4.28;;
25535;SDS011;13431;51.352;6.412;2023-02-28T05:24:20;12.45;;;3.85;;
25535;SDS011;13431;51.352;6.412;2023-02-28T05:26:51;6.78;;;4.57;;
25535;SDS011;13431;51.352;6.412;2023-02-28T05:29:20;5.28;;;4.35;;
25535;SDS011;13431;51.352;6.412;2023-02-28T05:31:47;5.97;;;4.68;;
25535;SDS011;13431;51.352;6.412;2023-02-28T05:34:15;4.70;;;3.97;;
25535;SDS011;13431;51.352;6.412;2023-02-28T05:36:42;9.88;;;5.72;;
25535;SDS011;13431;51.352;6.412;2023-02-28T05:39:10;6.57;;;4.53;;
25535;SDS011;13431;51.352;6.412;2023-02-28T05:41:40;6.57;;;4.30;;
25535;SDS011;13431;51.352;6.412;2023-02-28T05:44:09;6.20;;;4.53;;
25535;SDS011;13431;51.352;6.412;2023-02-28T05:46:37;7.05;;;4.45;;
25535;SDS011;13431;51.352;6.412;2023-02-28T05:49:05;5.90;;;4.45;;
25535;SDS011;13431;51.352;6.412;2023-02-28T05:51:32;6.13;;;4.03;;
25535;SDS011;13431;51.352;6.412;2023-02-28T05:54:01;5.30;;;4.38;;
25535;SDS011;13431;51.352;6.412;2023-02-28T05:56:28;5.40;;;3.90;;
25535;SDS011;13431;51.352;6.412;2023-02-28T05:58:56;8.05;;;4.45;;
25535;SDS011;13431;51.352;6.412;2023-02-28T06:01:45;4.82;;;4.32;;
25535;SDS011;13431;51.352;6.412;2023-02-28T06:04:16;5.72;;;4.10;;
25535;SDS011;13431;51.352;6.412;2023-02-28T06:06:57;7.28;;;4.25;;
25535;SDS011;13431;51.352;6.412;2023-02-28T06:09:24;6.35;;;4.85;;
25535;SDS011;13431;51.352;6.412;2023-02-28T06:11:52;7.95;;;4.80;;
25535;SDS011;13431;51.352;6.412;2023-02-28T06:14:19;8.10;;;4.68;;
25535;SDS011;13431;51.352;6.412;2023-02-28T06:16:47;6.25;;;4.57;;
25535;SDS011;13431;51.352;6.412;2023-02-28T06:19:14;7.03;;;4.95;;
25535;SDS011;13431;51.352;6.412;2023-02-28T06:21:42;5.07;;;4.25;;
25535;SDS011;13431;51.352;6.412;2023-02-28T06:24:09;6.40;;;4.43;;
25535;SDS011;13431;51.352;6.412;2023-02-28T06:26:37;7.38;;;3.95;;
25535;SDS011;13431;51.352;6.412;2023-02-28T06:29:04;5.63;;;4.40;;
25535;SDS011;13431;51.352;6.412;2023-02-28T06:31:32;6.60;;;3.95;;
25535;SDS011;13431;51.352;6.412;2023-02-28T06:34:00;7.03;;;4.20;;
25535;SDS011;13431;51.352;6.412;2023-02-28T06:36:27;5.10;;;3.85;;
25535;SDS011;13431;51.352;6.412;2023-02-28T06:38:54;5.10;;;3.65;;
25535;SDS011;13431;51.352;6.412;2023-02-28T06:41:24;4.95;;;3.85;;
25535;SDS011;13431;51.352;6.412;2023-02-28T06:43:52;7.70;;;4.22;;
25535;SDS011;13431;51.352;6.412;2023-02-28T06:46:20;6.95;;;4.15;;
25535;SDS011;13431;51.352;6.412;2023-02-28T06:48:48;8.00;;;3.58;;
25535;SDS011;13431;51.352;6.412;2023-02-28T06:51:17;5.80;;;3.20;;
25535;SDS011;13431;51.352;6.412;2023-02-28T06:56:18;5.40;;;3.65;;
25535;SDS011;13431;51.352;6.412;2023-02-28T06:58:47;5.32;;;3.33;;
25535;SDS011;13431;51.352;6.412;2023-02-28T07:01:17;9.35;;;3.78;;
25535;SDS011;13431;51.352;6.412;2023-02-28T07:03:46;6.88;;;3.88;;
25535;SDS011;13431;51.352;6.412;2023-02-28T07:06:19;5.00;;;3.75;;
25535;SDS011;13431;51.352;6.412;2023-02-28T07:08:51;6.82;;;3.42;;
25535;SDS011;13431;51.352;6.412;2023-02-28T07:11:20;7.13;;;3.50;;
25535;SDS011;13431;51.352;6.412;2023-02-28T07:13:49;4.20;;;2.80;;
25535;SDS011;13431;51.352;6.412;2023-02-28T07:16:17;5.75;;;3.50;;
25535;SDS011;13431;51.352;6.412;2023-02-28T07:18:45;5.30;;;3.08;;
25535;SDS011;13431;51.352;6.412;2023-02-28T07:21:12;6.68;;;3.30;;
25535;SDS011;13431;51.352;6.412;2023-02-28T07:23:40;5.53;;;3.20;;
25535;SDS011;13431;51.352;6.412;2023-02-28T07:26:12;7.07;;;3.28;;
25535;SDS011;13431;51.352;6.412;2023-02-28T07:28:42;5.13;;;3.60;;
25535;SDS011;13431;51.352;6.412;2023-02-28T07:31:11;3.53;;;2.97;;
25535;SDS011;13431;51.352;6.412;2023-02-28T07:33:40;4.60;;;3.35;;
25535;SDS011;13431;51.352;6.412;2023-02-28T07:36:10;7.05;;;3.20;;
25535;SDS011;13431;51.352;6.412;2023-02-28T07:38:43;6.13;;;3.22;;
25535;SDS011;13431;51.352;6.412;2023-02-28T07:41:14;5.97;;;3.42;;
25535;SDS011;13431;51.352;6.412;2023-02-28T07:43:43;3.60;;;3.10;;
25535;SDS011;13431;51.352;6.412;2023-02-28T07:46:12;6.18;;;3.65;;
25535;SDS011;13431;51.352;6.412;2023-02-28T07:48:44;4.35;;;2.95;;
25535;SDS011;13431;51.352;6.412;2023-02-28T07:51:11;6.88;;;3.15;;
25535;SDS011;13431;51.352;6.412;2023-02-28T07:53:40;6.57;;;3.40;;
25535;SDS011;13431;51.352;6.412;2023-02-28T07:56:07;4.22;;;2.83;;
25535;SDS011;13431;51.352;6.412;2023-02-28T07:58:35;3.20;;;2.90;;
25535;SDS011;13431;51.352;6.412;2023-02-28T08:01:06;3.75;;;3.10;;
25535;SDS011;13431;51.352;6.412;2023-02-28T08:03:35;3.88;;;2.58;;
25535;SDS011;13431;51.352;6.412;2023-02-28T08:06:04;5.20;;;2.92;;
25535;SDS011;13431;51.352;6.412;2023-02-28T08:08:32;8.18;;;3.03;;
25535;SDS011;13431;51.352;6.412;2023-02-28T08:11:00;6.28;;;2.53;;
25535;SDS011;13431;51.352;6.412;2023-02-28T08:13:29;3.15;;;2.40;;
25535;SDS011;13431;51.352;6.412;2023-02-28T08:15:57;3.03;;;2.40;;
25535;SDS011;13431;51.352;6.412;2023-02-28T08:18:24;4.50;;;2.63;;
25535;SDS011;13431;51.352;6.412;2023-02-28T08:20:52;2.85;;;2.38;;
25535;SDS011;13431;51.352;6.412;2023-02-28T08:23:19;7.75;;;3.10;;
25535;SDS011;13431;51.352;6.412;2023-02-28T08:25:52;3.67;;;2.90;;
25535;SDS011;13431;51.352;6.412;2023-02-28T08:28:22;11.13;;;3.58;;
25535;SDS011;13431;51.352;6.412;2023-02-28T08:30:53;3.65;;;2.88;;
25535;SDS011;13431;51.352;6.412;2023-02-28T08:33:22;4.57;;;2.38;;
25535;SDS011;13431;51.352;6.412;2023-02-28T08:35:53;2.85;;;2.53;;
25535;SDS011;13431;51.352;6.412;2023-02-28T08:38:23;4.43;;;2.03;;
25535;SDS011;13431;51.352;6.412;2023-02-28T08:40:57;3.30;;;2.72;;
25535;SDS011;13431;51.352;6.412;2023-02-28T08:43:25;5.20;;;2.22;;
25535;SDS011;13431;51.352;6.412;2023-02-28T08:45:53;3.67;;;2.33;;
25535;SDS011;13431;51.352;6.412;2023-02-28T08:48:24;4.13;;;2.63;;
25535;SDS011;13431;51.352;6.412;2023-02-28T08:51:03;4.72;;;2.58;;
25535;SDS011;13431;51.352;6.412;2023-02-28T08:53:35;3.75;;;2.53;;
25535;SDS011;13431;51.352;6.412;2023-02-28T08:56:10;4.70;;;2.60;;
25535;SDS011;13431;51.352;6.412;2023-02-28T08:58:40;3.70;;;2.55;;
25535;SDS011;13431;51.352;6.412;2023-02-28T09:01:08;5.57;;;2.88;;
25535;SDS011;13431;51.352;6.412;2023-02-28T09:03:46;4.00;;;2.33;;
25535;SDS011;13431;51.352;6.412;2023-02-28T09:06:15;3.42;;;2.45;;
25535;SDS011;13431;51.352;6.412;2023-02-28T09:08:44;3.67;;;2.65;;
25535;SDS011;13431;51.352;6.412;2023-02-28T09:11:12;4.90;;;2.65;;
25535;SDS011;13431;51.352;6.412;2023-02-28T09:13:39;2.95;;;2.58;;
25535;SDS011;13431;51.352;6.412;2023-02-28T09:16:08;4.57;;;2.65;;
25535;SDS011;13431;51.352;6.412;2023-02-28T09:18:38;3.20;;;2.30;;
25535;SDS011;13431;51.352;6.412;2023-02-28T09:21:06;5.55;;;2.70;;
25535;SDS011;13431;51.352;6.412;2023-02-28T09:23:35;2.85;;;2.60;;
25535;SDS011;13431;51.352;6.412;2023-02-28T09:26:04;3.20;;;2.38;;
25535;SDS011;13431;51.352;6.412;2023-02-28T09:28:33;2.58;;;1.77;;
25535;SDS011;13431;51.352;6.412;2023-02-28T09:31:00;2.80;;;2.20;;
25535;SDS011;13431;51.352;6.412;2023-02-28T09:33:27;3.75;;;2.03;;
25535;SDS011;13431;51.352;6.412;2023-02-28T09:35:59;2.28;;;1.95;;
25535;SDS011;13431;51.352;6.412;2023-02-28T09:38:27;2.17;;;1.90;;
25535;SDS011;13431;51.352;6.412;2023-02-28T09:40:58;6.95;;;2.15;;
25535;SDS011;13431;51.352;6.412;2023-02-28T09:43:30;2.28;;;2.08;;
25535;SDS011;13431;51.352;6.412;2023-02-28T09:46:05;4.23;;;1.70;;
25535;SDS011;13431;51.352;6.412;2023-02-28T09:48:42;3.35;;;2.10;;
25535;SDS011;13431;51.352;6.412;2023-02-28T09:51:23;1.83;;;1.73;;
25535;SDS011;13431;51.352;6.412;2023-02-28T09:54:02;2.42;;;2.08;;
25535;SDS011;13431;51.352;6.412;2023-02-28T09:56:37;4.53;;;2.00;;
25535;SDS011;13431;51.352;6.412;2023-02-28T10:01:59;3.28;;;2.10;;
25535;SDS011;13431;51.352;6.412;2023-02-28T10:04:51;2.97;;;1.58;;
25535;SDS011;13431;51.352;6.412;2023-02-28T10:10:38;3.22;;;2.17;;
25535;SDS011;13431;51.352;6.412;2023-02-28T10:15:46;2.95;;;1.65;;
25535;SDS011;13431;51.352;6.412;2023-02-28T10:18:19;3.40;;;1.92;;
25535;SDS011;13431;51.352;6.412;2023-02-28T10:20:51;3.08;;;2.20;;
25535;SDS011;13431;51.352;6.412;2023-02-28T10:23:20;1.92;;;1.83;;
25535;SDS011;13431;51.352;6.412;2023-02-28T10:26:14;2.17;;;1.52;;
25535;SDS011;13431;51.352;6.412;2023-02-28T10:28:44;2.75;;;2.00;;
25535;SDS011;13431;51.352;6.412;2023-02-28T10:31:14;2.70;;;2.00;;
25535;SDS011;13431;51.352;6.412;2023-02-28T10:33:45;2.22;;;2.03;;
25535;SDS011;13431;51.352;6.412;2023-02-28T10:36:14;3.70;;;2.30;;
25535;SDS011;13431;51.352;6.412;2023-02-28T10:38:44;2.53;;;2.33;;
25535;SDS011;13431;51.352;6.412;2023-02-28T10:41:13;3.80;;;2.83;;
25535;SDS011;13431;51.352;6.412;2023-02-28T10:43:43;2.75;;;2.10;;
25535;SDS011;13431;51.352;6.412;2023-02-28T10:46:15;3.58;;;2.65;;
25535;SDS011;13431;51.352;6.412;2023-02-28T10:49:03;2.55;;;1.90;;
25535;SDS011;13431;51.352;6.412;2023-02-28T10:51:36;2.25;;;1.80;;
25535;SDS011;13431;51.352;6.412;2023-02-28T10:54:05;1.60;;;1.50;;
25535;SDS011;13431;51.352;6.412;2023-02-28T10:56:42;1.92;;;1.83;;
25535;SDS011;13431;51.352;6.412;2023-02-28T10:59:29;4.45;;;1.90;;
25535;SDS011;13431;51.352;6.412;2023-02-28T11:01:57;4.53;;;1.70;;
25535;SDS011;13431;51.352;6.412;2023-02-28T11:07:00;2.10;;;1.70;;
25535;SDS011;13431;51.352;6.412;2023-02-28T11:09:48;1.70;;;1.60;;
25535;SDS011;13431;51.352;6.412;2023-02-28T11:12:36;2.58;;;2.05;;
25535;SDS011;13431;51.352;6.412;2023-02-28T11:18:02;1.25;;;1.15;;
25535;SDS011;13431;51.352;6.412;2023-02-28T11:20:39;2.30;;;1.55;;
25535;SDS011;13431;51.352;6.412;2023-02-28T11:23:11;1.70;;;1.50;;
25535;SDS011;13431;51.352;6.412;2023-02-28T11:25:40;1.85;;;1.75;;
25535;SDS011;13431;51.352;6.412;2023-02-28T11:28:28;2.38;;;1.65;;
25535;SDS011;13431;51.352;6.412;2023-02-28T11:31:05;1.88;;;1.73;;
25535;SDS011;13431;51.352;6.412;2023-02-28T11:33:42;2.20;;;1.52;;
25535;SDS011;13431;51.352;6.412;2023-02-28T11:38:52;2.30;;;1.60;;
25535;SDS011;13431;51.352;6.412;2023-02-28T11:46:56;1.70;;;1.55;;
25535;SDS011;13431;51.352;6.412;2023-02-28T11:55:37;2.20;;;1.60;;
25535;SDS011;13431;51.352;6.412;2023-02-28T12:28:24;1.58;;;1.48;;
25535;SDS011;13431;51.352;6.412;2023-02-28T12:31:05;4.88;;;2.05;;
25535;SDS011;13431;51.352;6.412;2023-02-28T12:33:47;3.63;;;2.20;;
25535;SDS011;13431;51.352;6.412;2023-02-28T12:36:19;3.28;;;2.40;;
25535;SDS011;13431;51.352;6.412;2023-02-28T12:38:51;4.43;;;2.50;;
25535;SDS011;13431;51.352;6.412;2023-02-28T12:44:10;3.17;;;1.88;;
25535;SDS011;13431;51.352;6.412;2023-02-28T12:46:55;4.35;;;2.00;;
25535;SDS011;13431;51.352;6.412;2023-02-28T12:52:18;1.98;;;1.80;;
25535;SDS011;13431;51.352;6.412;2023-02-28T12:55:01;3.88;;;2.50;;
25535;SDS011;13431;51.352;6.412;2023-02-28T12:57:41;3.22;;;2.03;;
25535;SDS011;13431;51.352;6.412;2023-02-28T13:00:17;2.53;;;1.95;;
25535;SDS011;13431;51.352;6.412;2023-02-28T13:02:59;3.25;;;2.20;;
25535;SDS011;13431;51.352;6.412;2023-02-28T13:08:49;2.75;;;2.22;;
25535;SDS011;13431;51.352;6.412;2023-02-28T13:13:59;4.38;;;2.00;;
25535;SDS011;13431;51.352;6.412;2023-02-28T13:16:46;3.63;;;2.67;;
25535;SDS011;13431;51.352;6.412;2023-02-28T13:19:26;4.32;;;1.90;;
25535;SDS011;13431;51.352;6.412;2023-02-28T13:21:59;1.85;;;1.73;;
25535;SDS011;13431;51.352;6.412;2023-02-28T13:24:38;2.25;;;1.90;;
25535;SDS011;13431;51.352;6.412;2023-02-28T13:29:37;2.55;;;2.28;;
25535;SDS011;13431;51.352;6.412;2023-02-28T13:34:35;3.20;;;2.58;;
25535;SDS011;13431;51.352;6.412;2023-02-28T13:39:53;5.85;;;4.25;;
25535;SDS011;13431;51.352;6.412;2023-02-28T13:47:30;3.28;;;2.85;;
25535;SDS011;13431;51.352;6.412;2023-02-28T13:55:49;2.67;;;2.38;;
25535;SDS011;13431;51.352;6.412;2023-02-28T14:03:56;2.25;;;2.05;;
25535;SDS011;13431;51.352;6.412;2023-02-28T14:06:46;2.05;;;1.85;;
25535;SDS011;13431;51.352;6.412;2023-02-28T14:09:24;3.38;;;2.03;;
25535;SDS011;13431;51.352;6.412;2023-02-28T14:11:53;2.80;;;2.35;;
25535;SDS011;13431;51.352;6.412;2023-02-28T14:17:02;3.47;;;2.17;;
25535;SDS011;13431;51.352;6.412;2023-02-28T14:19:31;2.20;;;1.98;;
25535;SDS011;13431;51.352;6.412;2023-02-28T14:27:48;2.97;;;2.28;;
25535;SDS011;13431;51.352;6.412;2023-02-28T14:31:00;2.90;;;2.60;;
25535;SDS011;13431;51.352;6.412;2023-02-28T14:33:27;3.53;;;3.20;;
25535;SDS011;13431;51.352;6.412;2023-02-28T14:36:04;2.50;;;2.30;;
25535;SDS011;13431;51.352;6.412;2023-02-28T14:38:45;3.97;;;2.50;;
25535;SDS011;13431;51.352;6.412;2023-02-28T14:41:23;2.42;;;2.22;;
25535;SDS011;13431;51.352;6.412;2023-02-28T14:44:03;4.90;;;2.78;;
25535;SDS011;13431;51.352;6.412;2023-02-28T14:49:26;4.28;;;2.35;;
25535;SDS011;13431;51.352;6.412;2023-02-28T14:54:33;4.15;;;2.40;;
25535;SDS011;13431;51.352;6.412;2023-02-28T14:57:01;5.90;;;2.30;;
25535;SDS011;13431;51.352;6.412;2023-02-28T14:59:29;3.53;;;2.00;;
25535;SDS011;13431;51.352;6.412;2023-02-28T15:04:52;3.13;;;2.83;;
25535;SDS011;13431;51.352;6.412;2023-02-28T15:07:24;3.40;;;3.08;;
25535;SDS011;13431;51.352;6.412;2023-02-28T15:12:41;3.15;;;2.28;;
25535;SDS011;13431;51.352;6.412;2023-02-28T15:15:19;4.07;;;2.50;;
25535;SDS011;13431;51.352;6.412;2023-02-28T15:18:01;5.05;;;2.97;;
25535;SDS011;13431;51.352;6.412;2023-02-28T15:20:32;4.38;;;2.60;;
25535;SDS011;13431;51.352;6.412;2023-02-28T15:23:02;3.08;;;2.78;;
25535;SDS011;13431;51.352;6.412;2023-02-28T15:25:29;2.90;;;2.60;;
25535;SDS011;13431;51.352;6.412;2023-02-28T15:27:58;9.50;;;7.18;;
25535;SDS011;13431;51.352;6.412;2023-02-28T15:30:27;5.07;;;4.63;;
25535;SDS011;13431;51.352;6.412;2023-02-28T15:33:03;3.53;;;2.45;;
25535;SDS011;13431;51.352;6.412;2023-02-28T15:35:35;2.50;;;2.28;;
25535;SDS011;13431;51.352;6.412;2023-02-28T15:38:03;2.80;;;2.60;;
25535;SDS011;13431;51.352;6.412;2023-02-28T15:43:27;4.82;;;2.75;;
25535;SDS011;13431;51.352;6.412;2023-02-28T15:48:29;2.90;;;2.33;;
25535;SDS011;13431;51.352;6.412;2023-02-28T15:56:24;3.33;;;2.50;;
25535;SDS011;13431;51.352;6.412;2023-02-28T15:59:00;3.95;;;2.20;;
25535;SDS011;13431;51.352;6.412;2023-02-28T16:01:31;4.30;;;2.58;;
25535;SDS011;13431;51.352;6.412;2023-02-28T16:04:04;4.75;;;2.83;;
25535;SDS011;13431;51.352;6.412;2023-02-28T16:06:42;3.10;;;2.80;;
25535;SDS011;13431;51.352;6.412;2023-02-28T16:09:12;2.90;;;2.45;;
25535;SDS011;13431;51.352;6.412;2023-02-28T16:11:45;3.65;;;2.60;;
25535;SDS011;13431;51.352;6.412;2023-02-28T16:14:16;2.50;;;2.30;;
25535;SDS011;13431;51.352;6.412;2023-02-28T16:16:47;3.63;;;2.35;;
25535;SDS011;13431;51.352;6.412;2023-02-28T16:19:17;4.32;;;2.47;;
25535;SDS011;13431;51.352;6.412;2023-02-28T16:21:45;2.67;;;2.30;;
25535;SDS011;13431;51.352;6.412;2023-02-28T16:24:14;3.92;;;2.60;;
25535;SDS011;13431;51.352;6.412;2023-02-28T16:26:41;10.13;;;3.20;;
25535;SDS011;13431;51.352;6.412;2023-02-28T16:29:13;2.67;;;2.40;;
25535;SDS011;13431;51.352;6.412;2023-02-28T16:31:47;3.28;;;2.78;;
25535;SDS011;13431;51.352;6.412;2023-02-28T16:34:15;4.82;;;3.08;;
25535;SDS011;13431;51.352;6.412;2023-02-28T16:36:42;3.47;;;2.50;;
25535;SDS011;13431;51.352;6.412;2023-02-28T16:39:15;3.72;;;2.67;;
25535;SDS011;13431;51.352;6.412;2023-02-28T16:41:44;3.17;;;2.85;;
25535;SDS011;13431;51.352;6.412;2023-02-28T16:44:13;3.58;;;2.53;;
25535;SDS011;13431;51.352;6.412;2023-02-28T16:46:51;3.17;;;2.70;;
25535;SDS011;13431;51.352;6.412;2023-02-28T16:49:18;4.20;;;2.92;;
25535;SDS011;13431;51.352;6.412;2023-02-28T16:51:45;6.07;;;2.58;;
25535;SDS011;13431;51.352;6.412;2023-02-28T16:54:13;3.08;;;2.78;;
25535;SDS011;13431;51.352;6.412;2023-02-28T16:56:45;5.18;;;3.10;;
25535;SDS011;13431;51.352;6.412;2023-02-28T16:59:15;4.30;;;2.67;;
25535;SDS011;13431;51.352;6.412;2023-02-28T17:01:47;5.20;;;2.90;;
25535;SDS011;13431;51.352;6.412;2023-02-28T17:04:16;5.18;;;3.00;;
25535;SDS011;13431;51.352;6.412;2023-02-28T17:06:43;2.55;;;2.33;;
25535;SDS011;13431;51.352;6.412;2023-02-28T17:09:16;5.63;;;3.10;;
25535;SDS011;13431;51.352;6.412;2023-02-28T17:11:47;3.50;;;3.20;;
25535;SDS011;13431;51.352;6.412;2023-02-28T17:14:15;5.47;;;2.97;;
25535;SDS011;13431;51.352;6.412;2023-02-28T17:16:43;3.50;;;2.92;;
25535;SDS011;13431;51.352;6.412;2023-02-28T17:19:11;3.10;;;2.80;;
25535;SDS011;13431;51.352;6.412;2023-02-28T17:21:41;3.47;;;2.60;;
25535;SDS011;13431;51.352;6.412;2023-02-28T17:24:09;4.95;;;2.92;;
25535;SDS011;13431;51.352;6.412;2023-02-28T17:26:55;5.50;;;3.75;;
25535;SDS011;13431;51.352;6.412;2023-02-28T17:29:22;4.05;;;3.08;;
25535;SDS011;13431;51.352;6.412;2023-02-28T17:31:51;4.57;;;3.20;;
25535;SDS011;13431;51.352;6.412;2023-02-28T17:34:18;6.65;;;3.65;;
25535;SDS011;13431;51.352;6.412;2023-02-28T17:36:47;3.95;;;3.42;;
25535;SDS011;13431;51.352;6.412;2023-02-28T17:39:17;3.78;;;3.17;;
25535;SDS011;13431;51.352;6.412;2023-02-28T17:41:51;4.85;;;3.15;;
25535;SDS011;13431;51.352;6.412;2023-02-28T17:44:20;3.97;;;3.47;;
25535;SDS011;13431;51.352;6.412;2023-02-28T17:46:48;3.92;;;3.45;;
25535;SDS011;13431;51.352;6.412;2023-02-28T17:49:17;5.10;;;3.30;;
25535;SDS011;13431;51.352;6.412;2023-02-28T17:51:45;5.25;;;3.80;;
25535;SDS011;13431;51.352;6.412;2023-02-28T17:54:13;5.00;;;3.90;;
25535;SDS011;13431;51.352;6.412;2023-02-28T17:56:40;4.60;;;3.78;;